Proctor, Pennsylvania
Current Conditions -  °F | °C
As of 12:54 AM on Sunday 21 Dec 2014 (Local Time) from KIPT Reporting Station
Overcast Overcast  
Wind Chill: 23°   Ceiling: 3100
Heat Index: 31°   Visibility: 10mi
Dew Point: 20°   Wind: 8mph
Humidity: 64%   Direction: 250°WSW
Pressure: 30.27"   Gusts: NA
Location:  41.246°N, 77.0167°W
Report Text: KIPT 210554Z AUTO 25007KT 10SM OVC031 M01/M07 A3027 RMK AO2 SLP255 T10061067 10006 21006 55004
Loading
Personal Weather Stations






























Interactive Weather Map New forecast layout! Learn more

10-Day Weather Forecast

Advertisements
Track Severe Weather on mobile